Time;durP1;ratioP1;P1;durP2;ratioP2;P2;SDS_P1;SDS_P2;PMS_P1;PMS_P2;Temp;Humidity;BMP_temperature;BMP_pressure;BME280_temperature;BME280_humidity;BME280_pressure;Samples;Min_cycle;Max_cycle;Signal;HPM_P1;HPM_P2
2023/10/27 00:00:32;;;;;;;0.50;0.50;;;9.70;99.90;;;;;;5115715;28;20489;-82
2023/10/27 00:02:57;;;;;;;1.30;1.30;;;9.70;99.90;;;;;;5118169;28;20054;-81
2023/10/27 00:05:24;;;;;;;0.40;0.40;;;9.70;99.90;;;;;;5133553;27;20071;-82
2023/10/27 00:07:50;;;;;;;0.43;0.43;;;9.70;99.90;;;;;;5133733;27;20039;-81
2023/10/27 00:10:15;;;;;;;0.32;0.32;;;9.70;99.90;;;;;;5100223;28;20489;-82
2023/10/27 00:12:41;;;;;;;0.32;0.32;;;9.70;99.90;;;;;;5100202;28;20047;-81
2023/10/27 00:15:07;;;;;;;0.30;0.30;;;9.70;99.90;;;;;;5100381;28;20043;-81
2023/10/27 00:17:33;;;;;;;1.10;1.10;;;9.70;99.90;;;;;;5099622;28;20498;-81
2023/10/27 00:19:59;;;;;;;0.30;0.30;;;9.70;99.90;;;;;;5134050;27;20043;-81
2023/10/27 00:22:25;;;;;;;0.30;0.30;;;9.70;99.90;;;;;;5116491;28;20099;-82
2023/10/27 00:24:51;;;;;;;;;;;9.70;99.90;;;;;;5099782;28;20051;-82
2023/10/27 00:27:17;;;;;;;0.40;0.40;;;9.70;99.90;;;;;;5099399;28;19927;-81
2023/10/27 00:29:43;;;;;;;0.32;0.32;;;9.70;99.90;;;;;;5098606;28;20047;-82
2023/10/27 00:32:09;;;;;;;0.70;0.70;;;9.70;99.90;;;;;;5117266;28;20058;-82
2023/10/27 00:34:35;;;;;;;0.80;0.80;;;9.70;99.90;;;;;;5099238;28;20566;-82
2023/10/27 00:37:01;;;;;;;;;;;9.70;99.90;;;;;;5083486;28;20043;-80
2023/10/27 00:39:26;;;;;;;0.70;0.70;;;9.70;99.90;;;;;;5133340;27;20309;-82
2023/10/27 00:41:52;;;;;;;0.40;0.40;;;9.70;99.90;;;;;;5133941;27;20043;-81
2023/10/27 00:44:18;;;;;;;0.40;0.40;;;9.70;99.90;;;;;;5099203;28;20402;-81
2023/10/27 00:46:44;;;;;;;0.40;0.40;;;9.70;99.90;;;;;;5117163;28;20524;-81
2023/10/27 00:49:11;;;;;;;0.40;0.40;;;9.70;99.90;;;;;;5098590;28;20079;-80
2023/10/27 00:51:38;;;;;;;0.50;0.50;;;9.70;99.90;;;;;;5132428;27;20113;-82
2023/10/27 00:54:08;;;;;;;0.45;0.45;;;9.70;99.90;;;;;;5098666;28;20062;-82
2023/10/27 00:56:36;;;;;;;0.32;0.32;;;9.70;99.90;;;;;;5117014;28;20056;-81
2023/10/27 00:59:02;;;;;;;0.40;0.40;;;9.70;99.90;;;;;;5116794;28;20051;-81
2023/10/27 01:01:28;;;;;;;0.40;0.40;;;9.70;99.90;;;;;;5098504;28;20445;-81
2023/10/27 01:03:55;;;;;;;;;;;9.70;99.90;;;;;;5116979;28;20031;-81
2023/10/27 01:06:23;;;;;;;0.30;0.30;;;9.70;99.90;;;;;;5098842;28;19920;-81
2023/10/27 01:08:48;;;;;;;0.40;0.40;;;9.70;99.90;;;;;;5099712;28;20051;-80
2023/10/27 01:11:16;;;;;;;0.40;0.40;;;9.70;99.90;;;;;;5099390;28;20063;-80
2023/10/27 01:13:42;;;;;;;0.50;0.50;;;9.70;99.90;;;;;;5113151;28;20047;-82
2023/10/27 01:16:08;;;;;;;0.30;0.30;;;9.60;99.90;;;;;;5122185;28;20087;-81
2023/10/27 01:18:33;;;;;;;0.38;0.38;;;9.70;99.90;;;;;;5098821;28;20046;-82
2023/10/27 01:20:59;;;;;;;0.40;0.40;;;9.60;99.90;;;;;;5098832;28;20055;-81
2023/10/27 01:23:25;;;;;;;0.50;0.50;;;9.60;99.90;;;;;;5099110;28;20071;-82
2023/10/27 01:25:52;;;;;;;0.30;0.30;;;9.60;99.90;;;;;;5098643;28;20115;-81
2023/10/27 01:28:17;;;;;;;0.38;0.38;;;9.60;99.90;;;;;;5132417;27;20051;-81
2023/10/27 01:30:43;;;;;;;0.47;0.47;;;9.60;99.90;;;;;;5131913;27;20054;-81
2023/10/27 01:33:09;;;;;;;0.43;0.43;;;9.60;99.90;;;;;;5097765;28;20039;-82
2023/10/27 01:35:35;;;;;;;0.30;0.30;;;9.60;99.90;;;;;;5097954;28;20044;-81
2023/10/27 01:38:02;;;;;;;0.40;0.40;;;9.60;99.90;;;;;;5080281;28;20127;-82
2023/10/27 01:40:28;;;;;;;0.60;0.60;;;9.60;99.90;;;;;;5098742;28;20115;-81
2023/10/27 01:42:53;;;;;;;;;;;9.70;99.90;;;;;;5098664;28;20050;-82
2023/10/27 01:45:19;;;;;;;0.30;0.30;;;9.70;99.90;;;;;;5131681;27;19919;-81
2023/10/27 01:47:45;;;;;;;0.65;0.65;;;9.60;99.90;;;;;;5116009;28;20132;-81
2023/10/27 01:50:11;;;;;;;0.40;0.40;;;9.60;99.90;;;;;;5097876;28;20201;-81
2023/10/27 01:52:36;;;;;;;0.40;0.40;;;9.60;99.90;;;;;;5098230;28;20050;-83
2023/10/27 01:55:02;;;;;;;0.32;0.32;;;9.60;99.90;;;;;;5131802;27;20036;-81
2023/10/27 01:57:28;;;;;;;0.47;0.47;;;9.60;99.90;;;;;;5131811;27;20395;-81
2023/10/27 01:59:54;;;;;;;0.50;0.50;;;9.60;99.90;;;;;;5098062;28;20058;-81
2023/10/27 02:02:20;;;;;;;0.30;0.30;;;9.60;99.90;;;;;;5131794;27;20486;-82
2023/10/27 02:04:46;;;;;;;0.43;0.40;;;9.60;99.90;;;;;;5080966;28;20060;-81
2023/10/27 02:07:12;;;;;;;0.73;0.73;;;9.60;99.90;;;;;;5115720;28;20047;-81
2023/10/27 02:09:39;;;;;;;0.30;0.30;;;9.60;99.90;;;;;;5097620;28;20054;-81
2023/10/27 02:12:07;;;;;;;0.35;0.35;;;9.60;99.90;;;;;;5097281;28;20138;-81
2023/10/27 02:14:33;;;;;;;1.10;1.10;;;9.60;99.90;;;;;;5097727;28;20445;-81
2023/10/27 02:16:59;;;;;;;1.02;0.38;;;9.60;99.90;;;;;;5080702;28;20063;-81
2023/10/27 02:19:25;;;;;;;1.05;1.05;;;9.60;99.90;;;;;;5115222;28;20043;-81
2023/10/27 02:21:50;;;;;;;1.08;1.08;;;9.60;99.90;;;;;;5130868;27;20049;-81
2023/10/27 02:24:16;;;;;;;0.43;0.43;;;9.50;99.90;;;;;;5113507;28;20471;-82
2023/10/27 02:26:42;;;;;;;0.40;0.40;;;9.60;99.90;;;;;;5097354;28;20104;-81
2023/10/27 02:29:08;;;;;;;0.32;0.32;;;9.70;99.90;;;;;;5097744;28;20125;-81
2023/10/27 02:31:33;;;;;;;0.50;0.50;;;9.50;99.90;;;;;;5131030;27;20394;-81
2023/10/27 02:33:59;;;;;;;0.57;0.57;;;9.50;99.90;;;;;;5096928;28;20043;-81
2023/10/27 02:36:25;;;;;;;0.43;0.43;;;9.50;99.90;;;;;;5097221;28;20043;-81
2023/10/27 02:38:51;;;;;;;1.02;1.02;;;9.50;99.90;;;;;;5113868;28;20509;-81
2023/10/27 02:41:16;;;;;;;0.40;0.40;;;9.50;99.90;;;;;;5080310;28;20135;-81
2023/10/27 02:43:42;;;;;;;1.95;1.08;;;9.50;99.90;;;;;;5130665;27;20085;-81
2023/10/27 02:46:12;;;;;;;0.35;0.35;;;9.50;99.90;;;;;;5079988;28;20534;-81
2023/10/27 02:48:40;;;;;;;1.00;1.00;;;9.50;99.90;;;;;;5115516;28;20051;-81
2023/10/27 02:51:06;;;;;;;0.47;0.47;;;9.50;99.90;;;;;;5096987;28;20462;-81
2023/10/27 02:53:31;;;;;;;0.30;0.30;;;9.50;99.90;;;;;;5114662;28;20145;-81
2023/10/27 02:56:04;;;;;;;0.38;0.38;;;9.50;99.90;;;;;;5080539;28;20410;-81
2023/10/27 02:58:30;;;;;;;0.60;0.60;;;9.50;99.90;;;;;;5131996;28;20378;-80
2023/10/27 03:00:56;;;;;;;0.63;0.63;;;9.50;99.90;;;;;;5101251;28;20035;-82
2023/10/27 03:03:21;;;;;;;0.40;0.40;;;9.50;99.90;;;;;;5103431;28;20028;-81
2023/10/27 03:05:49;;;;;;;0.52;0.52;;;9.50;99.90;;;;;;5141740;28;20052;-81
2023/10/27 03:08:14;;;;;;;0.50;0.50;;;9.50;99.90;;;;;;5131228;28;20394;-81
2023/10/27 03:10:40;;;;;;;0.50;0.50;;;9.50;99.90;;;;;;5131181;28;20039;-81
2023/10/27 03:13:08;;;;;;;0.75;0.75;;;9.40;99.90;;;;;;5080926;28;20451;-82
2023/10/27 03:15:35;;;;;;;0.28;0.28;;;9.50;99.90;;;;;;5096267;28;20050;-81
2023/10/27 03:18:02;;;;;;;0.85;0.65;;;9.40;99.90;;;;;;5097445;28;20051;-81
2023/10/27 03:20:28;;;;;;;0.40;0.40;;;9.50;99.90;;;;;;5114915;28;20085;-81
2023/10/27 03:22:54;;;;;;;0.50;0.50;;;9.50;99.90;;;;;;5097379;28;20048;-82
2023/10/27 03:25:20;;;;;;;0.30;0.30;;;9.40;99.90;;;;;;5131276;28;20055;-81
2023/10/27 03:27:45;;;;;;;0.40;0.40;;;9.40;99.90;;;;;;5096597;28;20039;-81
2023/10/27 03:30:12;;;;;;;0.40;0.40;;;9.40;99.90;;;;;;5096440;28;20043;-81
2023/10/27 03:32:37;;;;;;;0.50;0.50;;;9.40;99.90;;;;;;5078835;28;20126;-81
2023/10/27 03:35:04;;;;;;;0.52;0.52;;;9.40;99.90;;;;;;5097212;28;20090;-81
2023/10/27 03:37:29;;;;;;;0.30;0.30;;;9.40;99.90;;;;;;5100491;28;20086;-81
2023/10/27 03:39:55;;;;;;;0.85;0.85;;;9.40;99.90;;;;;;5134275;27;20048;-81
2023/10/27 03:42:21;;;;;;;;;;;9.40;99.90;;;;;;5101098;28;20044;-82
2023/10/27 03:44:47;;;;;;;1.05;1.05;;;9.40;99.90;;;;;;5117988;28;19924;-81
2023/10/27 03:47:13;;;;;;;0.40;0.40;;;9.30;99.90;;;;;;5134495;27;20042;-81
2023/10/27 03:49:39;;;;;;;0.50;0.50;;;9.30;99.90;;;;;;5134095;27;20055;-81
2023/10/27 03:52:04;;;;;;;0.60;0.60;;;9.30;99.90;;;;;;5100626;28;20043;-81
2023/10/27 03:54:30;;;;;;;0.60;0.60;;;9.30;99.90;;;;;;5100522;28;20039;-81
2023/10/27 03:56:56;;;;;;;0.60;0.60;;;9.30;99.90;;;;;;5099448;28;20044;-81
2023/10/27 03:59:22;;;;;;;0.30;0.30;;;9.20;99.90;;;;;;5100287;28;20079;-81
2023/10/27 04:01:47;;;;;;;0.90;0.90;;;9.20;99.90;;;;;;5083041;28;20535;-81
2023/10/27 04:04:14;;;;;;;0.40;0.40;;;9.20;99.90;;;;;;5134254;27;20058;-81
2023/10/27 04:06:40;;;;;;;;;;;9.20;99.90;;;;;;5100192;28;20048;-81
2023/10/27 04:09:05;;;;;;;0.50;0.50;;;9.10;99.90;;;;;;5117811;28;20366;-81
2023/10/27 04:11:31;;;;;;;0.57;0.47;;;9.10;99.90;;;;;;5083611;28;20059;-81
2023/10/27 04:13:57;;;;;;;0.40;0.40;;;9.10;99.90;;;;;;5133795;27;20051;-80
2023/10/27 04:16:22;;;;;;;0.45;0.45;;;9.10;99.90;;;;;;5082447;28;20134;-81
2023/10/27 04:18:49;;;;;;;0.55;0.55;;;9.00;99.90;;;;;;5082477;28;20130;-81
2023/10/27 04:21:14;;;;;;;0.40;0.40;;;9.00;99.90;;;;;;5099305;28;20059;-81
2023/10/27 04:23:40;;;;;;;0.40;0.40;;;9.00;99.90;;;;;;5133471;27;20044;-81
2023/10/27 04:26:06;;;;;;;2.55;2.40;;;9.00;99.90;;;;;;5116347;28;20047;-81
2023/10/27 04:28:32;;;;;;;0.63;0.60;;;9.00;99.90;;;;;;5100082;28;20138;-81
2023/10/27 04:30:58;;;;;;;0.40;0.40;;;9.00;99.90;;;;;;5117333;28;20588;-81
2023/10/27 04:33:24;;;;;;;0.30;0.30;;;8.90;99.90;;;;;;5133828;27;20105;-80
2023/10/27 04:35:51;;;;;;;0.40;0.40;;;8.90;99.90;;;;;;5099162;28;20048;-81
2023/10/27 04:38:16;;;;;;;;;;;8.90;99.90;;;;;;5133152;27;20063;-80
2023/10/27 04:40:42;;;;;;;0.75;0.65;;;8.90;99.90;;;;;;5099072;28;20014;-81
2023/10/27 04:43:08;;;;;;;0.40;0.40;;;8.80;99.90;;;;;;5100179;28;20050;-81
2023/10/27 04:45:33;;;;;;;0.40;0.40;;;8.80;99.90;;;;;;5137450;27;20036;-80
2023/10/27 04:47:59;;;;;;;0.93;0.93;;;8.80;99.90;;;;;;5105542;28;20023;-81
2023/10/27 04:50:25;;;;;;;1.20;1.20;;;8.80;99.90;;;;;;5122177;28;20061;-81
2023/10/27 04:52:51;;;;;;;;;;;8.70;99.90;;;;;;5106294;28;20048;-81
2023/10/27 04:55:18;;;;;;;0.30;0.30;;;8.70;99.90;;;;;;5134067;27;20015;-81
2023/10/27 04:57:44;;;;;;;0.50;0.50;;;8.60;99.90;;;;;;5098747;28;20418;-81
2023/10/27 05:00:11;;;;;;;0.68;0.68;;;8.60;99.90;;;;;;5115525;28;20047;-80
2023/10/27 05:02:37;;;;;;;0.40;0.40;;;8.60;99.90;;;;;;5098484;28;20051;-81
2023/10/27 05:05:03;;;;;;;0.40;0.40;;;8.60;99.90;;;;;;5132592;27;20393;-82
2023/10/27 05:07:29;;;;;;;;;;;8.60;99.90;;;;;;5133985;27;20481;-81
2023/10/27 05:09:55;;;;;;;0.73;0.73;;;8.50;99.90;;;;;;5117234;28;19919;-81
2023/10/27 05:12:20;;;;;;;0.60;0.60;;;8.50;99.90;;;;;;5098205;28;20040;-81
2023/10/27 05:14:46;;;;;;;0.70;0.70;;;8.40;99.90;;;;;;5097876;28;20039;-82
2023/10/27 05:17:13;;;;;;;0.40;0.40;;;8.40;99.90;;;;;;5098350;28;20116;-81
2023/10/27 05:19:39;;;;;;;0.70;0.70;;;8.40;99.90;;;;;;5099166;28;20051;-81
2023/10/27 05:22:05;;;;;;;0.40;0.40;;;8.40;99.90;;;;;;5132333;27;20544;-80
2023/10/27 05:24:34;;;;;;;0.40;0.40;;;8.40;99.90;;;;;;5098429;28;20043;-81
2023/10/27 05:27:00;;;;;;;0.47;0.47;;;8.40;99.90;;;;;;5116442;28;20553;-80
2023/10/27 05:29:26;;;;;;;0.43;0.43;;;8.50;99.90;;;;;;5098500;28;20050;-81
2023/10/27 05:31:53;;;;;;;0.50;0.50;;;8.50;99.90;;;;;;5116349;28;20051;-81
2023/10/27 05:34:18;;;;;;;0.40;0.40;;;8.50;99.90;;;;;;5115912;28;20043;-81
2023/10/27 05:36:44;;;;;;;0.50;0.50;;;8.60;99.90;;;;;;5115980;28;20393;-81
2023/10/27 05:39:16;;;;;;;0.30;0.30;;;8.60;99.90;;;;;;5114995;28;20366;-82
2023/10/27 05:41:48;;;;;;;0.30;0.30;;;8.60;99.90;;;;;;5081458;28;20047;-82
2023/10/27 05:44:14;;;;;;;0.30;0.30;;;8.70;99.90;;;;;;5097800;28;20048;-81
2023/10/27 05:46:40;;;;;;;0.40;0.40;;;8.70;99.90;;;;;;5097779;28;20059;-81
2023/10/27 05:49:06;;;;;;;0.40;0.40;;;8.80;99.90;;;;;;5097854;28;20044;-81
2023/10/27 05:51:33;;;;;;;0.40;0.40;;;8.80;99.90;;;;;;5131507;27;20040;-81
2023/10/27 05:53:59;;;;;;;0.40;0.40;;;8.80;99.90;;;;;;5098297;28;20070;-81
2023/10/27 05:56:27;;;;;;;0.40;0.40;;;8.90;99.90;;;;;;5131616;27;20561;-81
2023/10/27 05:58:53;;;;;;;0.32;0.32;;;9.80;99.90;;;;;;5097058;28;20086;-81
2023/10/27 06:01:19;;;;;;;0.30;0.30;;;8.90;99.90;;;;;;5097449;28;20096;-81
2023/10/27 06:03:45;;;;;;;;;;;9.00;99.90;;;;;;5097499;28;20177;-81
2023/10/27 06:06:10;;;;;;;0.40;0.40;;;9.00;99.90;;;;;;5114821;28;19962;-81
2023/10/27 06:08:42;;;;;;;0.30;0.30;;;9.00;99.90;;;;;;5080714;28;20482;-81
2023/10/27 06:11:08;;;;;;;0.50;0.50;;;9.00;99.90;;;;;;5097652;28;20086;-80
2023/10/27 06:13:34;;;;;;;0.35;0.35;;;9.10;99.90;;;;;;5115734;28;20097;-81
2023/10/27 06:15:59;;;;;;;0.40;0.40;;;9.10;99.90;;;;;;5079369;28;20069;-81
2023/10/27 06:18:25;;;;;;;0.40;0.40;;;9.10;99.90;;;;;;5080886;28;20071;-81
2023/10/27 06:20:51;;;;;;;1.55;0.50;;;9.10;99.90;;;;;;5097174;28;20130;-81
2023/10/27 06:23:17;;;;;;;0.40;0.40;;;9.10;99.90;;;;;;5097099;28;20051;-81
2023/10/27 06:25:42;;;;;;;0.40;0.40;;;9.10;99.90;;;;;;5131293;27;20518;-82
2023/10/27 06:28:08;;;;;;;0.30;0.30;;;9.10;99.90;;;;;;5096909;28;20047;-81
2023/10/27 06:30:34;;;;;;;0.45;0.45;;;9.10;99.90;;;;;;5096780;28;20044;-81
2023/10/27 06:32:59;;;;;;;0.50;0.50;;;9.10;99.90;;;;;;5134466;27;20051;-81
2023/10/27 06:35:25;;;;;;;0.30;0.30;;;9.20;99.90;;;;;;5137232;27;20039;-81
2023/10/27 06:37:51;;;;;;;0.50;0.50;;;9.10;99.90;;;;;;5117444;28;20047;-81
2023/10/27 06:40:17;;;;;;;0.40;0.40;;;9.10;99.90;;;;;;5102430;28;20043;-81
2023/10/27 06:42:43;;;;;;;0.40;0.40;;;9.10;99.90;;;;;;5080724;28;20126;-81
2023/10/27 06:45:09;;;;;;;0.40;0.40;;;9.10;99.90;;;;;;5130317;27;20050;-81
2023/10/27 06:47:39;;;;;;;0.30;0.30;;;9.10;99.90;;;;;;5096591;28;20047;-81
2023/10/27 06:50:05;;;;;;;0.55;0.55;;;9.10;99.90;;;;;;5096037;28;20047;-81
2023/10/27 06:52:33;;;;;;;;;;;9.10;99.90;;;;;;5096815;28;20104;-81
2023/10/27 06:54:59;;;;;;;0.32;0.32;;;9.10;99.90;;;;;;5113894;28;20039;-81
2023/10/27 06:57:25;;;;;;;1.35;1.35;;;9.10;99.90;;;;;;5130669;28;20059;-81
2023/10/27 06:59:55;;;;;;;;;;;9.10;99.90;;;;;;5096102;28;20043;-80
2023/10/27 07:02:20;;;;;;;0.30;0.30;;;9.20;99.90;;;;;;5080114;28;19920;-81
2023/10/27 07:04:46;;;;;;;0.50;0.47;;;9.20;99.90;;;;;;5096253;28;20063;-81
2023/10/27 07:07:12;;;;;;;0.40;0.40;;;9.20;99.90;;;;;;5113383;28;20056;-81
2023/10/27 07:09:38;;;;;;;0.30;0.30;;;9.30;99.90;;;;;;5132782;27;20050;-81
2023/10/27 07:12:05;;;;;;;0.30;0.30;;;9.30;99.90;;;;;;5101029;28;20048;-82
2023/10/27 07:14:31;;;;;;;0.30;0.30;;;9.30;99.90;;;;;;5099639;28;20143;-81
2023/10/27 07:17:00;;;;;;;1.20;0.95;;;9.40;99.90;;;;;;5134200;27;20107;-82
2023/10/27 07:19:26;;;;;;;0.30;0.30;;;9.40;99.90;;;;;;5133346;27;20475;-81
2023/10/27 07:21:51;;;;;;;0.40;0.40;;;9.40;99.90;;;;;;5118591;28;20055;-81
2023/10/27 07:24:17;;;;;;;0.47;0.47;;;9.40;99.90;;;;;;5117949;28;20039;-82
2023/10/27 07:26:43;;;;;;;0.30;0.30;;;9.40;99.90;;;;;;5134698;27;20046;-82
2023/10/27 07:29:09;;;;;;;0.50;0.50;;;9.40;99.90;;;;;;5135283;27;20138;-81
2023/10/27 07:31:35;;;;;;;;;;;9.40;99.90;;;;;;5100605;28;20118;-81
2023/10/27 07:34:01;;;;;;;0.70;0.70;;;9.50;99.90;;;;;;5099733;28;20393;-80
2023/10/27 07:36:27;;;;;;;0.45;0.45;;;9.50;99.90;;;;;;5100376;28;20128;-81
2023/10/27 07:38:52;;;;;;;0.40;0.40;;;9.50;99.90;;;;;;5134038;27;20040;-81
2023/10/27 07:41:18;;;;;;;0.47;0.47;;;9.50;99.90;;;;;;5117973;28;20040;-80
2023/10/27 07:43:44;;;;;;;0.40;0.40;;;9.50;99.90;;;;;;5134489;27;20087;-81
2023/10/27 07:46:11;;;;;;;0.30;0.30;;;9.50;99.90;;;;;;5134053;27;20070;-80
2023/10/27 07:48:37;;;;;;;0.50;0.50;;;9.60;99.90;;;;;;5082114;28;20058;-82
2023/10/27 07:51:03;;;;;;;0.40;0.40;;;9.60;99.90;;;;;;5104846;28;20051;-82
2023/10/27 07:53:29;;;;;;;0.30;0.30;;;9.70;99.90;;;;;;5083005;28;20047;-82
2023/10/27 07:55:56;;;;;;;0.30;0.30;;;9.70;99.90;;;;;;5098993;28;20067;-83
2023/10/27 07:58:25;;;;;;;0.80;0.80;;;9.70;99.90;;;;;;5099256;28;20047;-83
2023/10/27 08:00:52;;;;;;;0.47;0.47;;;9.70;99.90;;;;;;5099895;28;20100;-82
2023/10/27 08:03:18;;;;;;;;;;;9.70;99.90;;;;;;5099852;28;20070;-82
2023/10/27 08:05:44;;;;;;;0.45;0.45;;;9.70;99.90;;;;;;5099438;28;19919;-82
2023/10/27 08:08:10;;;;;;;0.38;0.38;;;9.80;99.90;;;;;;5117093;28;20057;-82
2023/10/27 08:10:39;;;;;;;0.30;0.30;;;9.80;99.90;;;;;;5098597;28;20084;-84
2023/10/27 08:13:05;;;;;;;0.30;0.30;;;9.80;99.90;;;;;;5098442;28;20130;-81
2023/10/27 08:15:34;;;;;;;0.20;0.20;;;9.80;99.90;;;;;;5117539;28;20143;-81
2023/10/27 08:18:01;;;;;;;0.68;0.68;;;9.80;99.90;;;;;;5133694;27;20413;-82
2023/10/27 08:20:27;;;;;;;;;;;9.80;99.90;;;;;;5118444;28;20055;-82
2023/10/27 08:22:52;;;;;;;0.30;0.30;;;9.80;99.90;;;;;;5119535;28;19960;-81
2023/10/27 08:25:22;;;;;;;0.30;0.30;;;9.90;99.90;;;;;;5142058;27;20079;-83
2023/10/27 08:27:51;;;;;;;0.40;0.40;;;9.80;99.90;;;;;;5098392;28;20097;-82
2023/10/27 08:30:17;;;;;;;0.30;0.30;;;9.90;99.90;;;;;;5098564;28;20047;-82
2023/10/27 08:32:43;;;;;;;;;;;9.90;99.90;;;;;;5099587;28;20060;-81
2023/10/27 08:35:09;;;;;;;0.30;0.30;;;9.90;99.90;;;;;;5098600;28;19943;-82
2023/10/27 08:37:35;;;;;;;0.40;0.40;;;9.90;99.90;;;;;;5097959;28;20040;-81
2023/10/27 08:40:02;;;;;;;0.50;0.50;;;10.00;99.90;;;;;;5098415;28;20047;-81
2023/10/27 08:42:32;;;;;;;0.40;0.40;;;10.10;99.90;;;;;;5081712;28;20071;-81
2023/10/27 08:44:59;;;;;;;0.30;0.30;;;10.10;99.90;;;;;;5081412;28;20035;-81
2023/10/27 08:47:31;;;;;;;0.30;0.30;;;10.20;99.90;;;;;;5116340;28;20059;-82
2023/10/27 08:50:01;;;;;;;0.68;0.68;;;10.30;99.90;;;;;;5099330;28;20052;-82
2023/10/27 08:52:28;;;;;;;0.47;0.47;;;10.40;99.90;;;;;;5099119;28;20051;-81
2023/10/27 08:54:54;;;;;;;0.40;0.40;;;10.50;99.90;;;;;;5117061;28;20096;-81
2023/10/27 08:57:20;;;;;;;0.20;0.20;;;10.60;99.90;;;;;;5116619;28;20059;-81
2023/10/27 08:59:47;;;;;;;0.30;0.30;;;10.60;99.90;;;;;;5132949;27;20430;-81
2023/10/27 09:02:13;;;;;;;0.30;0.30;;;10.70;99.90;;;;;;5097903;28;20039;-81
2023/10/27 09:04:43;;;;;;;0.35;0.35;;;10.90;99.90;;;;;;5131737;27;20073;-82
2023/10/27 09:07:08;;;;;;;0.28;0.28;;;11.20;99.90;;;;;;5097368;28;20398;-82
2023/10/27 09:09:34;;;;;;;0.30;0.30;;;10.80;99.90;;;;;;5097941;28;20048;-82
2023/10/27 09:12:00;;;;;;;;;;;10.80;99.90;;;;;;5099071;28;20351;-82
2023/10/27 09:14:30;;;;;;;0.25;0.25;;;10.80;99.90;;;;;;5080967;28;20025;-82
2023/10/27 09:17:13;;;;;;;0.20;0.20;;;11.10;99.90;;;;;;5097481;28;20207;-81
2023/10/27 09:19:44;;;;;;;0.40;0.40;;;11.30;99.90;;;;;;5097445;28;20051;-82
2023/10/27 09:22:20;;;;;;;0.20;0.20;;;11.40;99.90;;;;;;5097818;28;20047;-81
2023/10/27 09:24:46;;;;;;;0.40;0.40;;;10.90;99.90;;;;;;5097642;28;20054;-82
2023/10/27 09:27:13;;;;;;;0.20;0.20;;;10.90;99.90;;;;;;5097344;28;20505;-82
2023/10/27 09:29:42;;;;;;;0.40;0.40;;;11.30;99.90;;;;;;5116514;28;20351;-82
2023/10/27 09:32:25;;;;;;;0.20;0.20;;;11.00;99.90;;;;;;5131546;27;20067;-82
2023/10/27 09:35:13;;;;;;;0.38;0.38;;;11.00;99.90;;;;;;5096928;28;20044;-81
2023/10/27 09:37:41;;;;;;;0.30;0.30;;;11.10;99.90;;;;;;5097587;28;20087;-82
2023/10/27 09:40:11;;;;;;;0.30;0.30;;;11.10;99.90;;;;;;5097591;28;20062;-82
2023/10/27 09:42:38;;;;;;;0.93;0.70;;;11.10;99.90;;;;;;5097992;28;20051;-82
2023/10/27 09:45:09;;;;;;;0.38;0.38;;;11.20;99.90;;;;;;5097312;28;20077;-82
2023/10/27 09:48:02;;;;;;;0.30;0.30;;;11.20;99.90;;;;;;5080034;28;20054;-82
2023/10/27 09:50:29;;;;;;;0.20;0.20;;;11.20;99.90;;;;;;5115388;28;20058;-82
2023/10/27 09:53:00;;;;;;;0.30;0.30;;;11.20;99.90;;;;;;5114485;28;20078;-81
2023/10/27 09:55:31;;;;;;;0.30;0.30;;;11.20;99.90;;;;;;5114435;28;20083;-82
2023/10/27 09:57:59;;;;;;;0.20;0.20;;;11.20;99.90;;;;;;5080436;28;20055;-82
2023/10/27 10:00:31;;;;;;;0.60;0.60;;;11.30;99.90;;;;;;5080468;28;20126;-80
2023/10/27 10:02:59;;;;;;;0.40;0.40;;;11.30;99.90;;;;;;5114969;28;20084;-81
2023/10/27 10:05:24;;;;;;;0.50;0.50;;;11.40;99.90;;;;;;5103717;28;20055;-82
2023/10/27 10:08:00;;;;;;;0.30;0.30;;;11.50;99.90;;;;;;5104835;28;20048;-80
2023/10/27 10:10:33;;;;;;;0.30;0.30;;;11.60;99.90;;;;;;5101869;28;20046;-81
2023/10/27 10:13:04;;;;;;;0.30;0.30;;;11.70;99.90;;;;;;5097576;28;20115;-82
2023/10/27 10:15:38;;;;;;;0.30;0.30;;;11.80;99.90;;;;;;5097057;28;20077;-81
2023/10/27 10:18:06;;;;;;;0.30;0.30;;;11.90;99.90;;;;;;5079913;28;20373;-81
2023/10/27 10:20:53;;;;;;;0.30;0.30;;;11.90;99.90;;;;;;5112961;28;20039;-81
2023/10/27 10:23:20;;;;;;;0.40;0.40;;;12.00;99.90;;;;;;5097276;28;20361;-83
2023/10/27 10:25:56;;;;;;;0.30;0.30;;;12.10;99.90;;;;;;5096100;28;20427;-81
2023/10/27 10:28:22;;;;;;;0.52;0.52;;;12.20;99.90;;;;;;5096752;28;20051;-80
2023/10/27 10:31:17;;;;;;;0.35;0.35;;;12.50;99.90;;;;;;5096318;28;20043;-81
2023/10/27 10:33:45;;;;;;;0.30;0.30;;;12.20;99.90;;;;;;5096390;28;20051;-81
2023/10/27 10:36:24;;;;;;;0.20;0.20;;;12.20;99.90;;;;;;5113125;28;20058;-81
2023/10/27 10:38:51;;;;;;;0.30;0.30;;;12.20;99.90;;;;;;5096967;28;20479;-80
2023/10/27 10:41:18;;;;;;;0.57;0.57;;;12.20;99.90;;;;;;5097104;28;20116;-81
2023/10/27 10:43:45;;;;;;;0.20;0.20;;;12.10;99.90;;;;;;5095878;28;20494;-80
2023/10/27 10:46:12;;;;;;;0.38;0.38;;;12.10;99.90;;;;;;5095984;28;20048;-81
2023/10/27 10:48:46;;;;;;;0.20;0.20;;;12.00;99.90;;;;;;5114119;28;20039;-81
2023/10/27 10:51:15;;;;;;;0.20;0.20;;;12.00;99.90;;;;;;5112951;28;20127;-81
2023/10/27 10:53:42;;;;;;;0.60;0.60;;;11.90;99.90;;;;;;5079791;28;20051;-81
2023/10/27 10:56:09;;;;;;;0.28;0.28;;;11.80;99.90;;;;;;5086197;28;20533;-81
2023/10/27 10:58:36;;;;;;;0.77;0.47;;;11.70;99.90;;;;;;5073270;28;20406;-81
2023/10/27 11:01:06;;;;;;;0.32;0.32;;;11.60;99.90;;;;;;5072556;28;20052;-81
2023/10/27 11:03:36;;;;;;;0.55;0.55;;;11.60;99.90;;;;;;5072250;28;20120;-81
2023/10/27 11:06:05;;;;;;;0.20;0.20;;;11.60;99.90;;;;;;5073782;28;20383;-80
2023/10/27 11:08:34;;;;;;;0.40;0.40;;;11.50;99.90;;;;;;5073315;28;20044;-81
2023/10/27 11:11:14;;;;;;;0.52;0.47;;;11.50;99.90;;;;;;5072406;28;20114;-80
2023/10/27 11:13:43;;;;;;;0.30;0.30;;;11.40;99.90;;;;;;5056378;28;20059;-80
2023/10/27 11:16:16;;;;;;;0.20;0.20;;;11.40;99.90;;;;;;5072504;28;20045;-81
2023/10/27 11:18:48;;;;;;;0.25;0.25;;;11.40;99.90;;;;;;5055186;28;20055;-81
2023/10/27 11:21:19;;;;;;;0.30;0.30;;;11.40;99.90;;;;;;5072761;28;20422;-80
2023/10/27 11:23:46;;;;;;;0.30;0.30;;;11.40;99.90;;;;;;5072550;28;20044;-80
2023/10/27 11:26:14;;;;;;;0.50;0.40;;;11.40;99.90;;;;;;5073005;28;20102;-81
2023/10/27 11:28:41;;;;;;;0.30;0.30;;;11.40;99.90;;;;;;5054796;28;20421;-81
2023/10/27 11:31:22;;;;;;;0.40;0.40;;;11.30;99.90;;;;;;5072657;28;20123;-80
2023/10/27 11:34:26;;;;;;;0.30;0.30;;;11.30;99.90;;;;;;5072782;28;20045;-80
2023/10/27 11:37:01;;;;;;;0.50;0.50;;;11.30;99.90;;;;;;5049066;28;20060;-81
2023/10/27 11:39:27;;;;;;;0.40;0.40;;;11.30;99.90;;;;;;5055914;28;20052;-81
2023/10/27 11:41:54;;;;;;;0.20;0.20;;;11.30;99.90;;;;;;5072633;28;20078;-80
2023/10/27 11:44:21;;;;;;;0.60;0.60;;;11.30;99.90;;;;;;5056254;28;20040;-80
2023/10/27 11:46:48;;;;;;;0.30;0.30;;;11.30;99.90;;;;;;5072344;28;20461;-80
2023/10/27 11:49:15;;;;;;;0.40;0.40;;;11.20;99.90;;;;;;5082029;28;20056;-81
2023/10/27 11:51:49;;;;;;;0.30;0.30;;;11.30;99.90;;;;;;5094304;28;20051;-81
2023/10/27 11:54:15;;;;;;;0.30;0.30;;;11.20;99.90;;;;;;5075699;28;20052;-81
2023/10/27 11:56:41;;;;;;;0.30;0.30;;;10.00;99.90;;;;;;5074651;28;20054;-81
2023/10/27 11:59:09;;;;;;;0.40;0.40;;;11.20;99.90;;;;;;5043919;28;20050;-81
2023/10/27 12:01:37;;;;;;;0.22;0.22;;;11.20;99.90;;;;;;5075537;28;20048;-81
2023/10/27 12:04:05;;;;;;;0.30;0.30;;;11.10;99.90;;;;;;5076937;28;20044;-81
2023/10/27 12:06:31;;;;;;;0.30;0.30;;;11.10;99.90;;;;;;5076394;28;20055;-81
2023/10/27 12:08:57;;;;;;;0.50;0.50;;;10.80;99.90;;;;;;5075734;28;20049;-81
2023/10/27 12:11:22;;;;;;;0.30;0.30;;;11.10;99.90;;;;;;5075584;28;20078;-81
2023/10/27 12:13:48;;;;;;;0.30;0.30;;;11.10;99.90;;;;;;5074836;28;20052;-81
2023/10/27 12:16:14;;;;;;;0.45;0.45;;;11.10;99.90;;;;;;5075475;28;20440;-81
2023/10/27 12:18:40;;;;;;;0.70;0.70;;;11.10;99.90;;;;;;5075345;28;20428;-81
2023/10/27 12:21:06;;;;;;;0.30;0.30;;;11.10;99.90;;;;;;5074596;28;20052;-81
2023/10/27 12:23:32;;;;;;;0.38;0.38;;;11.10;99.90;;;;;;5075698;28;20041;-81
2023/10/27 12:25:58;;;;;;;;;;;11.00;99.90;;;;;;5077073;28;20048;-81
2023/10/27 12:28:25;;;;;;;0.30;0.30;;;11.00;99.90;;;;;;5075581;28;19927;-82
2023/10/27 12:30:50;;;;;;;0.30;0.30;;;11.00;99.90;;;;;;5075847;28;20060;-82
2023/10/27 12:33:16;;;;;;;0.30;0.30;;;11.10;99.90;;;;;;5075659;28;20517;-81
2023/10/27 12:35:42;;;;;;;0.30;0.30;;;11.10;99.90;;;;;;5074082;28;20040;-82
2023/10/27 12:38:08;;;;;;;0.52;0.52;;;11.10;99.90;;;;;;5074772;28;20044;-81
2023/10/27 12:40:34;;;;;;;0.30;0.30;;;11.10;99.90;;;;;;5058659;28;20055;-81
2023/10/27 12:43:01;;;;;;;0.35;0.35;;;11.10;99.90;;;;;;5074995;28;20086;-81
2023/10/27 12:45:27;;;;;;;0.47;0.32;;;10.50;99.90;;;;;;5075556;28;20044;-82
2023/10/27 12:47:53;;;;;;;0.30;0.30;;;11.20;99.90;;;;;;5074471;28;20047;-81
2023/10/27 12:50:19;;;;;;;0.40;0.40;;;11.20;99.90;;;;;;5075898;28;20119;-81
2023/10/27 12:52:44;;;;;;;0.20;0.20;;;11.20;99.90;;;;;;5058220;28;20128;-81
2023/10/27 12:55:11;;;;;;;0.40;0.40;;;11.20;99.90;;;;;;5075811;28;20067;-82
2023/10/27 12:57:37;;;;;;;0.30;0.30;;;11.20;99.90;;;;;;5057493;28;20525;-81